AirNav   Duncan Aviation - Near you to keep you flying
 
 1648 users online  

3WA3 Angel Park Airport
Kahlotus, Washington, USA

GOING TO KAHLOTUS?


FAA INFORMATION EFFECTIVE 04 NOVEMBER 2021

Location

FAA Identifier: 3WA3
Lat/Long: 46-38-54.5080N 118-34-58.9550W
46-38.908467N 118-34.982583W
46.6484744,-118.5830431
(estimated)
Elevation: 884 ft. / 269.4 m (surveyed)
Variation: 19E (1985)
From city: 1 mile W of KAHLOTUS, WA
Time zone: UTC -8 (UTC -7 during Daylight Saving Time)
Zip code: 99335

Airport Operations

Airport use: Private use. Permission required prior to landing
Activation date: 07/1971
Control tower: no
ARTCC: SEATTLE CENTER
FSS: SEATTLE FLIGHT SERVICE STATION
Attendance: UNATNDD
Wind indicator: yes
Segmented circle: no

Nearby radio navigation aids

VOR radial/distance  VOR name  Freq  Var
PSCr029/31.7PASCO VOR/DME109.8015E
ALWr320/35.8WALLA WALLA VOR/DME116.4020E

Airport Services

Airframe service: NONE
Powerplant service: NONE

Runway Information

Runway 6/24

Dimensions: 3900 x 60 ft. / 1189 x 18 m
Surface: asphalt
RUNWAY 6  RUNWAY 24
Traffic pattern: rightright
Obstructions: nonepline, 2640 ft. from runway

Airport Ownership and Management from official FAA records

Ownership: Privately-owned
Owner: MILTON OGDEN
20 WADSWORTH RD
KAHLOTUS, WA 99335
Phone 480-440-0017
Manager: MILTON OGDEN
20 WADSWORTH RD
KAHLOTUS, WA 99335
Phone 480-440-0017

Airport Operational Statistics

Aircraft based on the field: 1
Single engine airplanes: 1
    

Additional Remarks

PPR CALL CELL 480-440-0017.
FOR CD CTC SEATTLE ARTCC AT 253-351-3694.

Instrument Procedures

There are no published instrument procedures at 3WA3.

Some nearby airports with instrument procedures:

KPSC - Tri-Cities Airport (32 nm SW)
KALW - Walla Walla Regional Airport (36 nm S)
KRLD - Richland Airport (36 nm SW)
KMWH - Grant County International Airport (45 nm NW)
KEPH - Ephrata Municipal Airport (55 nm NW)
 
Loc | Ops | Rwys | IFR | FBO | Links
Com | Nav | Svcs | Stats | Notes
Area around 3WA3 (Angel Park Airport)
 
Road maps at: MapQuest Bing Google
 
Aerial photo
WARNING: Photo may not be current or correct
Aerial photo of 3WA3 (Angel Park Airport)
Photo by David Wyatt
Photo taken 23-Jun-2007

Do you have a better or more recent aerial photo of Angel Park Airport that you would like to share? If so, please send us your photo.

 
Sectional chart

 
Airport distance calculator
Flying to Angel Park Airport? Find the distance to fly.

From to 3WA3

Sunrise and sunset
Times for 29-Nov-2021
 Local
(UTC-8)
 Zulu
(UTC)
Morning civil twilight06:4314:43
Sunrise07:1715:17
Sunset16:0900:09
Evening civil twilight16:4300:43

Current date and time
Zulu (UTC)  29-Nov-2021 23:15:31
Local (UTC-8)  29-Nov-2021 15:15:31
 
METAR
KPSC 
32nm SW 
292253Z 22013KT 10SM CLR 17/08 A3023 RMK AO2 SLP236 T01720083
KALW 
35nm S 
292253Z 23009KT 10SM CLR 14/07 A3024 RMK AO2 SLP241 T01440072
KRLD 
36nm SW 
292255Z AUTO 21009KT 10SM CLR 17/09 A3023 RMK AO2 T01710092
KMWH 
45nm NW 
292252Z 23007KT 10SM CLR 17/04 A3019 RMK AO2 SLP224 T01670039
TAF
KPSC 
32nm SW 
291736Z 2918/3018 22010KT P6SM BKN100 FM291900 23011KT P6SM FEW250 FM300200 20006KT P6SM SCT200 FM301200 22010KT P6SM BKN120
KALW 
35nm S 
291736Z 2918/3018 19011KT P6SM VCSH SCT040 OVC100 FM292000 20011G18KT P6SM FEW250 FM300100 16008KT P6SM SCT250 FM301300 19011KT P6SM BKN120
NOTAMs
Click for the latest NOTAMs
NOTAMs are issued by the DoD/FAA and will open in a separate window not controlled by AirNav.

 

 
 

Would you like to see your business listed on this page?

 If your business provides an interesting product or service to pilots, flight crews, aircraft, or users of the Angel Park Airport, you should consider listing it here.  To start the listing process, click on the button below
 
Add a business
 

Other Pages about Angel Park Airport

Update a link
 
Copyright © AirNav, LLC. All rights reserved. Privacy Policy  Contact